Time;durP1;ratioP1;P1;durP2;ratioP2;P2;SDS_P1;SDS_P2;PMS_P1;PMS_P2;Temp;Humidity;BMP_temperature;BMP_pressure;BME280_temperature;BME280_humidity;BME280_pressure;Samples;Min_cycle;Max_cycle;Signal;HPM_P1;HPM_P2
2022/11/12 00:00:01;;;;;;;18.10;11.77;;;7.00;99.90;;;;;;5046347;28;20033;-62
2022/11/12 00:02:26;;;;;;;16.10;10.52;;;7.00;99.90;;;;;;5041443;28;20033;-60
2022/11/12 00:04:52;;;;;;;15.57;10.55;;;7.00;99.90;;;;;;5050229;28;20037;-62
2022/11/12 00:07:17;;;;;;;17.42;11.77;;;7.00;99.90;;;;;;5048965;28;20077;-62
2022/11/12 00:09:43;;;;;;;18.38;12.30;;;7.00;99.90;;;;;;5034247;28;20045;-62
2022/11/12 00:12:09;;;;;;;15.50;10.52;;;7.00;99.90;;;;;;5046731;28;20057;-61
2022/11/12 00:14:34;;;;;;;18.02;10.95;;;7.00;99.90;;;;;;5048014;28;20499;-62
2022/11/12 00:17:00;;;;;;;15.27;10.23;;;6.90;99.90;;;;;;5050196;28;20035;-62
2022/11/12 00:19:25;;;;;;;14.85;10.10;;;6.90;99.90;;;;;;5051801;28;20323;-62
2022/11/12 00:21:51;;;;;;;13.73;9.75;;;6.90;99.90;;;;;;5050975;28;20113;-61
2022/11/12 00:24:16;;;;;;;14.38;10.00;;;6.90;99.90;;;;;;5050361;28;20033;-62
2022/11/12 00:26:42;;;;;;;14.23;9.90;;;6.80;99.90;;;;;;5048793;28;20045;-62
2022/11/12 00:29:08;;;;;;;12.57;9.10;;;6.80;99.90;;;;;;5025306;28;20426;-62
2022/11/12 00:31:33;;;;;;;11.98;8.23;;;6.80;99.90;;;;;;5051747;28;20445;-61
2022/11/12 00:34:00;;;;;;;12.65;9.60;;;6.80;99.90;;;;;;5049951;28;20037;-62
2022/11/12 00:36:25;;;;;;;12.65;8.80;;;6.70;99.90;;;;;;5052142;28;20068;-62
2022/11/12 00:38:51;;;;;;;14.52;9.25;;;6.80;99.90;;;;;;5032889;28;20467;-61
2022/11/12 00:41:16;;;;;;;12.77;8.60;;;6.70;99.90;;;;;;5049562;28;20036;-62
2022/11/12 00:43:42;;;;;;;13.60;8.70;;;6.70;99.90;;;;;;5041341;28;20616;-62
2022/11/12 00:46:08;;;;;;;11.05;8.70;;;6.70;99.90;;;;;;5022111;28;20434;-61
2022/11/12 00:48:34;;;;;;;14.43;8.77;;;6.60;99.90;;;;;;5029637;28;20032;-62
2022/11/12 00:51:01;;;;;;;12.23;7.60;;;6.60;99.90;;;;;;5050199;28;20032;-61
2022/11/12 00:53:27;;;;;;;12.52;8.15;;;6.60;99.90;;;;;;5042119;28;20052;-62
2022/11/12 00:55:52;;;;;;;14.10;8.75;;;6.60;99.90;;;;;;5049061;28;20128;-63
2022/11/12 00:58:18;;;;;;;11.65;8.75;;;6.60;99.90;;;;;;5051885;28;20491;-62
2022/11/12 01:00:43;;;;;;;12.48;8.93;;;6.60;99.90;;;;;;5050429;28;20041;-63
2022/11/12 01:03:09;;;;;;;12.15;7.72;;;6.60;99.90;;;;;;5049679;28;20251;-62
2022/11/12 01:05:34;;;;;;;12.48;8.38;;;6.60;99.90;;;;;;5031825;28;20059;-62
2022/11/12 01:08:00;;;;;;;12.55;9.48;;;6.60;99.90;;;;;;5051051;28;20090;-62
2022/11/12 01:10:26;;;;;;;13.32;9.20;;;6.50;99.90;;;;;;5043052;28;20477;-63
2022/11/12 01:12:51;;;;;;;12.77;9.82;;;6.50;99.90;;;;;;5048289;28;20120;-61
2022/11/12 01:15:17;;;;;;;13.30;9.98;;;6.50;99.90;;;;;;5018142;28;20032;-62
2022/11/12 01:17:42;;;;;;;13.40;9.05;;;6.50;99.90;;;;;;5031777;28;20033;-62
2022/11/12 01:20:08;;;;;;;14.60;9.07;;;6.60;99.90;;;;;;5034759;28;20041;-62
2022/11/12 01:22:34;;;;;;;16.10;9.00;;;6.50;99.90;;;;;;5048463;28;20037;-62
2022/11/12 01:24:59;;;;;;;13.75;9.73;;;6.50;99.90;;;;;;5049435;28;20034;-61
2022/11/12 01:27:25;;;;;;;13.77;9.75;;;6.50;99.90;;;;;;5051526;28;20063;-62
2022/11/12 01:29:50;;;;;;;13.30;8.80;;;6.50;99.90;;;;;;5048097;28;20048;-61
2022/11/12 01:32:16;;;;;;;14.80;9.43;;;6.50;99.90;;;;;;5045437;28;20041;-62
2022/11/12 01:34:42;;;;;;;14.80;10.32;;;6.50;99.90;;;;;;5030482;28;20128;-62
2022/11/12 01:37:07;;;;;;;15.43;9.98;;;6.60;99.90;;;;;;5048385;28;20120;-61
2022/11/12 01:39:33;;;;;;;17.10;10.27;;;6.50;99.90;;;;;;5047662;28;20045;-62
2022/11/12 01:41:58;;;;;;;14.30;9.07;;;6.50;99.90;;;;;;5048918;28;20071;-62
2022/11/12 01:44:29;;;;;;;15.23;10.00;;;6.50;99.90;;;;;;5050000;28;20040;-61
2022/11/12 01:47:14;;;;;;;13.90;9.32;;;6.50;99.90;;;;;;5030559;28;20053;-62
2022/11/12 01:49:57;;;;;;;13.65;9.55;;;6.50;99.90;;;;;;5033044;28;20086;-62
2022/11/12 01:52:36;;;;;;;11.63;7.95;;;6.50;99.90;;;;;;5040703;28;20037;-62
2022/11/12 01:55:12;;;;;;;46.95;8.73;;;6.50;99.90;;;;;;5030610;28;20044;-62
2022/11/12 01:57:50;;;;;;;10.90;7.35;;;6.50;99.90;;;;;;5050110;28;20045;-62
2022/11/12 02:00:16;;;;;;;12.32;7.55;;;6.40;99.90;;;;;;5027497;28;20067;-62
2022/11/12 02:02:46;;;;;;;12.52;8.32;;;6.30;99.90;;;;;;5050148;28;20048;-62
2022/11/12 02:05:13;;;;;;;9.25;6.90;;;6.40;99.90;;;;;;5042035;28;20048;-62
2022/11/12 02:07:42;;;;;;;7.38;5.85;;;6.30;99.90;;;;;;5045740;28;20044;-62
2022/11/12 02:10:08;;;;;;;13.77;5.95;;;6.30;99.90;;;;;;5049133;28;20398;-62
2022/11/12 02:15:19;;;;;;;7.65;5.72;;;6.10;99.90;;;;;;5046561;28;20049;-62
2022/11/12 02:17:44;;;;;;;8.35;6.32;;;6.00;99.90;;;;;;5048062;28;20040;-61
2022/11/12 02:20:12;;;;;;;11.40;7.28;;;6.00;99.90;;;;;;5047528;28;20056;-62
2022/11/12 02:22:37;;;;;;;11.98;7.50;;;5.90;99.90;;;;;;5050392;28;20048;-61
2022/11/12 02:25:04;;;;;;;12.13;6.95;;;5.90;99.90;;;;;;5047007;28;20083;-61
2022/11/12 02:27:29;;;;;;;12.90;6.57;;;5.90;99.90;;;;;;5029733;28;20049;-61
2022/11/12 02:29:55;;;;;;;74.60;8.80;;;6.00;99.90;;;;;;5048988;28;20037;-61
2022/11/12 02:32:21;;;;;;;9.85;6.72;;;6.00;99.90;;;;;;5049334;28;20037;-61
2022/11/12 02:34:46;;;;;;;13.93;6.90;;;6.00;99.90;;;;;;5045752;28;20479;-61
2022/11/12 02:37:12;;;;;;;46.15;7.50;;;6.00;99.90;;;;;;5044880;28;20040;-61
2022/11/12 02:39:37;;;;;;;13.40;5.70;;;6.00;99.90;;;;;;5029711;28;20056;-60
2022/11/12 02:42:03;;;;;;;8.85;5.68;;;5.90;99.90;;;;;;5049942;28;20033;-62
2022/11/12 02:44:30;;;;;;;9.95;5.68;;;5.90;99.90;;;;;;5048073;28;20079;-62
2022/11/12 02:46:55;;;;;;;9.07;5.20;;;5.90;99.90;;;;;;5048384;28;20041;-63
2022/11/12 02:49:21;;;;;;;9.80;5.30;;;5.90;99.90;;;;;;5054367;28;20388;-62
2022/11/12 02:51:47;;;;;;;7.90;5.07;;;5.90;99.90;;;;;;5052707;28;20040;-62
2022/11/12 02:54:13;;;;;;;8.02;5.43;;;5.90;99.90;;;;;;5056254;28;20049;-62
2022/11/12 02:56:38;;;;;;;8.63;6.05;;;5.90;99.90;;;;;;5053450;28;20036;-61
2022/11/12 02:59:04;;;;;;;7.05;5.00;;;5.90;99.90;;;;;;5056931;28;20033;-62
2022/11/12 03:01:29;;;;;;;9.90;6.88;;;5.90;99.90;;;;;;5052640;28;20044;-62
2022/11/12 03:03:55;;;;;;;12.23;7.32;;;5.90;99.90;;;;;;5051929;28;20029;-62
2022/11/12 03:06:21;;;;;;;10.13;6.70;;;5.90;99.90;;;;;;5052407;28;20048;-62
2022/11/12 03:08:46;;;;;;;11.95;6.70;;;6.00;99.90;;;;;;5056845;28;20541;-62
2022/11/12 03:11:15;;;;;;;30.33;7.55;;;6.00;99.90;;;;;;5038333;28;20049;-62
2022/11/12 03:13:41;;;;;;;21.13;7.00;;;6.00;99.90;;;;;;5053917;28;20410;-62
2022/11/12 03:16:07;;;;;;;9.40;6.30;;;6.00;99.90;;;;;;5048426;28;20038;-61
2022/11/12 03:18:33;;;;;;;8.43;5.60;;;6.00;99.90;;;;;;5052929;28;20048;-62
2022/11/12 03:20:58;;;;;;;10.75;6.32;;;5.90;99.90;;;;;;5056215;28;20032;-62
2022/11/12 03:23:25;;;;;;;9.13;5.85;;;5.90;99.90;;;;;;5078170;22;20094;-63
2022/11/12 03:25:52;;;;;;;8.85;6.03;;;5.90;99.90;;;;;;5054268;28;20082;-63
2022/11/12 03:28:17;;;;;;;9.38;6.38;;;5.90;99.90;;;;;;5028873;28;20038;-63
2022/11/12 03:30:44;;;;;;;13.88;6.15;;;5.90;99.90;;;;;;5056089;28;20040;-63
2022/11/12 03:33:13;;;;;;;14.75;6.07;;;6.00;99.90;;;;;;5048211;28;20037;-64
2022/11/12 03:35:39;;;;;;;10.57;6.03;;;6.00;99.90;;;;;;5036220;28;20041;-64
2022/11/12 03:38:05;;;;;;;8.25;5.28;;;6.00;99.90;;;;;;5036604;28;20505;-64
2022/11/12 03:40:31;;;;;;;10.45;5.95;;;6.00;99.90;;;;;;5037695;28;20037;-64
2022/11/12 03:42:57;;;;;;;8.30;5.50;;;5.90;99.90;;;;;;5035320;28;20040;-64
2022/11/12 03:45:25;;;;;;;6.93;5.30;;;6.00;99.90;;;;;;5019263;28;20033;-64
2022/11/12 03:47:53;;;;;;;14.32;4.53;;;6.00;99.90;;;;;;5036329;28;20041;-64
2022/11/12 03:50:21;;;;;;;45.53;6.18;;;5.90;99.90;;;;;;5035503;28;20045;-64
2022/11/12 03:52:48;;;;;;;53.40;6.18;;;5.80;99.90;;;;;;5018522;28;20042;-64
2022/11/12 03:55:16;;;;;;;7.97;4.63;;;5.60;99.90;;;;;;5037097;28;20045;-64
2022/11/12 03:57:42;;;;;;;6.38;4.68;;;5.60;99.90;;;;;;5036111;28;20037;-64
2022/11/12 04:00:10;;;;;;;5.80;4.47;;;5.50;99.90;;;;;;5033146;28;20132;-63
2022/11/12 04:02:37;;;;;;;9.48;4.95;;;5.40;99.90;;;;;;5016554;28;20072;-64
2022/11/12 04:10:46;;;;;;;31.70;6.97;;;5.40;99.90;;;;;;5033093;28;20072;-64
2022/11/12 04:13:26;;;;;;;14.40;6.13;;;5.30;99.90;;;;;;5014866;28;20430;-64
2022/11/12 04:26:21;;;;;;;17.00;3.55;;;5.30;99.90;;;;;;5032455;28;20049;-63
2022/11/12 04:27:00;;;;;;;8.75;3.60;;;5.20;99.90;;;;;;5030326;28;20083;-64
2022/11/12 04:32:09;;;;;;;6.32;4.30;;;5.00;99.90;;;;;;5033010;28;20040;-64
2022/11/12 04:34:35;;;;;;;16.95;4.22;;;4.90;99.90;;;;;;5032005;28;20041;-64
2022/11/12 04:37:04;;;;;;;10.68;4.07;;;5.00;99.90;;;;;;5032564;28;20038;-64
2022/11/12 04:39:30;;;;;;;8.05;4.18;;;5.00;99.90;;;;;;5032165;28;20423;-63
2022/11/12 04:45:00;;;;;;;23.08;4.88;;;5.00;99.90;;;;;;5032528;28;20450;-64
2022/11/12 04:47:37;;;;;;;33.53;5.32;;;5.00;99.90;;;;;;5025616;28;20029;-64
2022/11/12 04:50:06;;;;;;;41.63;4.95;;;5.00;99.90;;;;;;5010553;28;20134;-64
2022/11/12 04:52:32;;;;;;;40.65;4.72;;;5.00;99.90;;;;;;5031892;28;20049;-64
2022/11/12 04:54:58;;;;;;;15.10;3.80;;;5.00;99.90;;;;;;5015061;28;20038;-63
2022/11/12 04:57:24;;;;;;;15.32;3.95;;;5.00;99.90;;;;;;5033273;28;20037;-63
2022/11/12 04:59:50;;;;;;;29.33;4.95;;;5.00;99.90;;;;;;5031240;28;20072;-64
2022/11/12 05:02:16;;;;;;;10.77;4.45;;;5.00;99.90;;;;;;5007314;28;20119;-63
2022/11/12 05:04:42;;;;;;;20.02;4.20;;;5.10;99.90;;;;;;5027527;28;20051;-63
2022/11/12 05:07:09;;;;;;;20.33;3.67;;;5.10;99.90;;;;;;5030645;28;20037;-63
2022/11/12 05:09:34;;;;;;;39.53;4.70;;;5.10;99.90;;;;;;5031187;28;20044;-63
2022/11/12 05:12:00;;;;;;;21.25;4.25;;;5.00;99.90;;;;;;5007366;28;20050;-63
2022/11/12 05:14:26;;;;;;;49.47;4.40;;;5.00;99.90;;;;;;5026711;28;20064;-63
2022/11/12 05:16:51;;;;;;;29.77;4.40;;;5.00;99.90;;;;;;5024598;28;20044;-63
2022/11/12 05:19:18;;;;;;;16.98;3.60;;;4.90;99.90;;;;;;5007371;28;20462;-63
2022/11/12 05:24:28;;;;;;;17.45;4.68;;;4.80;99.90;;;;;;5021457;28;20049;-63
2022/11/12 05:26:54;;;;;;;8.90;4.25;;;4.80;99.90;;;;;;5025778;28;20029;-63
2022/11/12 05:29:19;;;;;;;14.07;5.22;;;4.80;99.90;;;;;;5029960;28;20139;-63
2022/11/12 05:31:45;;;;;;;32.05;6.45;;;4.90;99.90;;;;;;5025709;28;22394;-63
2022/11/12 05:34:11;;;;;;;35.13;5.47;;;4.80;99.90;;;;;;5033508;28;20049;-64
2022/11/12 05:36:37;;;;;;;33.78;5.70;;;4.90;99.90;;;;;;5030023;28;20071;-63
2022/11/12 05:39:03;;;;;;;38.33;6.32;;;4.90;99.90;;;;;;5031783;28;20041;-64
2022/11/12 05:41:29;;;;;;;30.20;5.45;;;4.90;99.90;;;;;;5027780;28;20049;-63
2022/11/12 05:43:54;;;;;;;19.83;4.90;;;4.90;99.90;;;;;;5030686;28;20034;-64
2022/11/12 05:46:20;;;;;;;44.78;5.63;;;5.00;99.90;;;;;;5030907;28;20184;-64
2022/11/12 05:48:46;;;;;;;15.05;4.40;;;5.00;99.90;;;;;;5029999;28;21183;-64
2022/11/12 05:51:12;;;;;;;13.10;4.38;;;4.90;99.90;;;;;;5030395;28;20041;-64
2022/11/12 05:53:38;;;;;;;18.63;4.50;;;5.00;99.90;;;;;;5028586;28;20442;-64
2022/11/12 05:56:05;;;;;;;15.60;4.28;;;5.00;99.90;;;;;;5030643;28;20084;-64
2022/11/12 05:58:31;;;;;;;10.48;4.28;;;5.00;99.90;;;;;;5030001;28;20044;-64
2022/11/12 06:00:58;;;;;;;11.85;4.25;;;5.00;99.90;;;;;;5011436;28;20387;-64
2022/11/12 06:03:24;;;;;;;22.65;4.75;;;5.00;99.90;;;;;;5010591;28;20487;-64
2022/11/12 06:05:50;;;;;;;10.52;4.00;;;5.00;99.90;;;;;;5027523;28;20033;-64
2022/11/12 06:08:15;;;;;;;13.40;3.80;;;4.90;99.90;;;;;;5011345;28;20052;-64
2022/11/12 06:10:42;;;;;;;4.80;2.97;;;4.80;99.90;;;;;;5013925;28;20045;-64
2022/11/12 06:13:07;;;;;;;6.03;3.10;;;4.80;99.90;;;;;;5030062;28;20087;-64
2022/11/12 06:15:33;;;;;;;5.03;2.92;;;4.70;99.90;;;;;;5027032;28;20045;-64
2022/11/12 06:17:58;;;;;;;11.02;3.70;;;4.70;99.90;;;;;;5031610;28;20494;-63
2022/11/12 06:20:24;;;;;;;26.33;4.03;;;4.70;99.90;;;;;;5029531;28;20041;-64
2022/11/12 06:22:50;;;;;;;13.00;3.28;;;4.60;99.90;;;;;;5030679;28;20037;-63
2022/11/12 06:25:16;;;;;;;27.08;3.30;;;4.60;99.90;;;;;;5028744;28;20041;-64
2022/11/12 06:27:42;;;;;;;7.68;2.88;;;4.50;99.90;;;;;;5029787;28;20034;-64
2022/11/12 06:30:09;;;;;;;25.05;3.60;;;4.50;99.90;;;;;;5029574;28;20106;-64
2022/11/12 06:32:34;;;;;;;22.25;3.47;;;4.50;99.90;;;;;;4996974;28;20042;-64
2022/11/12 06:35:00;;;;;;;28.90;3.85;;;4.50;99.90;;;;;;5007847;28;20048;-63
2022/11/12 06:37:26;;;;;;;60.60;4.93;;;4.40;99.90;;;;;;5030815;28;20041;-64
2022/11/12 06:39:51;;;;;;;9.40;3.67;;;4.40;99.90;;;;;;5030118;28;20056;-63
2022/11/12 06:42:17;;;;;;;8.45;3.65;;;4.30;99.90;;;;;;5012194;28;20483;-64
2022/11/12 06:44:43;;;;;;;15.82;4.80;;;4.20;99.90;;;;;;5029616;28;20037;-64
2022/11/12 06:47:09;;;;;;;21.77;4.47;;;4.20;99.90;;;;;;5028374;28;20044;-64
2022/11/12 06:49:35;;;;;;;6.88;3.97;;;4.20;99.90;;;;;;5012130;28;20032;-64
2022/11/12 06:52:01;;;;;;;26.75;4.80;;;4.20;99.90;;;;;;5030108;28;20034;-64
2022/11/12 06:54:26;;;;;;;15.60;4.45;;;4.20;99.90;;;;;;5028149;28;20348;-64
2022/11/12 06:56:52;;;;;;;21.10;4.40;;;4.10;99.90;;;;;;5028108;28;20040;-64
2022/11/12 06:59:17;;;;;;;6.78;4.35;;;4.10;99.90;;;;;;5022205;28;20076;-64
2022/11/12 07:01:43;;;;;;;4.50;3.72;;;4.20;99.90;;;;;;5029557;28;20021;-64
2022/11/12 07:04:09;;;;;;;6.75;3.92;;;4.20;99.90;;;;;;5030603;28;20068;-64
2022/11/12 07:06:35;;;;;;;5.13;3.92;;;4.20;99.90;;;;;;5027531;28;20495;-64
2022/11/12 07:09:02;;;;;;;8.35;4.40;;;4.20;99.90;;;;;;5029344;28;20029;-64
2022/11/12 07:11:27;;;;;;;7.18;4.40;;;4.20;99.90;;;;;;5028828;28;20042;-64
2022/11/12 07:13:53;;;;;;;5.90;3.90;;;4.20;99.90;;;;;;5029076;28;20068;-64
2022/11/12 07:16:18;;;;;;;3.90;3.33;;;4.20;99.90;;;;;;5031295;28;20111;-64
2022/11/12 07:18:48;;;;;;;4.68;3.53;;;4.30;99.90;;;;;;5026232;28;20458;-64
2022/11/12 07:21:17;;;;;;;6.90;3.42;;;4.30;99.90;;;;;;5023191;28;20099;-63
2022/11/12 07:23:44;;;;;;;5.70;3.67;;;4.30;99.90;;;;;;5024747;28;20041;-64
2022/11/12 07:26:14;;;;;;;5.57;3.50;;;4.20;99.90;;;;;;5025913;28;20026;-64
2022/11/12 07:28:39;;;;;;;5.13;3.60;;;4.20;99.90;;;;;;5028900;28;20043;-64
2022/11/12 07:31:08;;;;;;;5.25;4.22;;;4.20;99.90;;;;;;5009487;28;20116;-64
2022/11/12 07:33:34;;;;;;;13.50;5.75;;;4.20;99.90;;;;;;5026357;28;20091;-64
2022/11/12 07:36:05;;;;;;;11.23;5.15;;;4.20;99.90;;;;;;5026448;28;20510;-64
2022/11/12 07:38:33;;;;;;;14.73;4.68;;;4.20;99.90;;;;;;5032719;28;20498;-63
2022/11/12 07:41:04;;;;;;;10.27;4.40;;;4.20;99.90;;;;;;5013394;28;20088;-64
2022/11/12 07:43:31;;;;;;;7.47;3.85;;;4.20;99.90;;;;;;5013998;28;20045;-64
2022/11/12 07:45:59;;;;;;;10.30;4.47;;;4.30;99.90;;;;;;5031338;28;20038;-64
2022/11/12 07:48:24;;;;;;;21.52;4.57;;;4.30;99.90;;;;;;5033145;28;20112;-64
2022/11/12 07:50:50;;;;;;;8.68;4.50;;;4.30;99.90;;;;;;5032164;28;20120;-64
2022/11/12 07:53:15;;;;;;;11.07;4.32;;;4.30;99.90;;;;;;5029285;28;20029;-64
2022/11/12 07:55:41;;;;;;;9.80;4.38;;;4.40;99.90;;;;;;5032820;28;20175;-64
2022/11/12 07:58:06;;;;;;;7.32;4.10;;;4.40;99.90;;;;;;5032709;28;20702;-64
2022/11/12 08:00:32;;;;;;;6.28;4.38;;;4.40;99.90;;;;;;5032108;28;20037;-64
2022/11/12 08:03:01;;;;;;;7.47;3.75;;;4.50;99.90;;;;;;5009954;28;20063;-64
2022/11/12 08:05:26;;;;;;;9.18;3.92;;;4.50;99.90;;;;;;5028960;28;20128;-64
2022/11/12 08:07:55;;;;;;;9.65;4.40;;;4.60;99.90;;;;;;5032111;28;20159;-63
2022/11/12 08:10:21;;;;;;;6.60;4.80;;;4.60;99.90;;;;;;5032589;28;20091;-64
2022/11/12 08:12:46;;;;;;;5.88;4.53;;;4.60;99.90;;;;;;5030846;28;20123;-64
2022/11/12 08:15:12;;;;;;;5.82;4.63;;;4.70;99.90;;;;;;5030592;28;20037;-64
2022/11/12 08:17:39;;;;;;;7.07;5.22;;;4.80;99.90;;;;;;5031972;28;20506;-64
2022/11/12 08:20:05;;;;;;;5.13;3.85;;;4.90;99.90;;;;;;5032152;28;20121;-64
2022/11/12 08:22:31;;;;;;;6.15;4.68;;;5.00;99.90;;;;;;5015414;28;20041;-65
2022/11/12 08:24:56;;;;;;;5.50;4.72;;;5.10;99.90;;;;;;5031608;28;20120;-64
2022/11/12 08:27:22;;;;;;;6.38;5.03;;;5.20;99.90;;;;;;5030166;28;20061;-64
2022/11/12 08:29:48;;;;;;;5.10;3.75;;;5.30;99.90;;;;;;5031143;28;20040;-64
2022/11/12 08:32:14;;;;;;;5.57;4.47;;;5.40;99.90;;;;;;5008004;28;20064;-64
2022/11/12 08:34:42;;;;;;;7.50;5.45;;;5.50;99.90;;;;;;5010067;28;20997;-64
2022/11/12 08:37:08;;;;;;;7.45;5.80;;;5.60;99.90;;;;;;5011180;28;20495;-64
2022/11/12 08:39:33;;;;;;;8.13;6.00;;;5.70;99.90;;;;;;5030857;28;20091;-64
2022/11/12 08:41:59;;;;;;;9.70;6.45;;;5.80;99.90;;;;;;5006503;28;20034;-64
2022/11/12 08:44:25;;;;;;;11.80;7.20;;;5.90;99.90;;;;;;5028091;28;20048;-64
2022/11/12 08:46:50;;;;;;;8.70;7.15;;;6.00;99.90;;;;;;5028588;28;20038;-64
2022/11/12 08:49:16;;;;;;;12.05;7.93;;;6.20;99.90;;;;;;5030752;28;20045;-64
2022/11/12 08:51:41;;;;;;;9.52;7.45;;;6.30;99.90;;;;;;5015460;28;20452;-64
2022/11/12 08:54:07;;;;;;;13.27;8.50;;;6.40;99.90;;;;;;5030838;28;20041;-64
2022/11/12 08:56:33;;;;;;;11.57;8.75;;;6.50;99.90;;;;;;5032283;28;20038;-64
2022/11/12 08:58:59;;;;;;;16.58;9.13;;;6.60;99.90;;;;;;5014446;28;20038;-64
2022/11/12 09:01:24;;;;;;;13.73;9.15;;;6.70;99.90;;;;;;5031046;28;20037;-63
2022/11/12 09:03:50;;;;;;;16.85;9.75;;;6.80;99.90;;;;;;5030042;28;20052;-64
2022/11/12 09:06:15;;;;;;;14.70;9.40;;;6.90;99.90;;;;;;5031261;28;20076;-64
2022/11/12 09:08:41;;;;;;;14.07;10.15;;;7.00;99.90;;;;;;5032059;28;20429;-63
2022/11/12 09:11:07;;;;;;;18.35;10.40;;;7.00;99.90;;;;;;5031404;28;20029;-63
2022/11/12 09:13:33;;;;;;;15.77;10.10;;;7.10;99.90;;;;;;5031709;28;20029;-63
2022/11/12 09:16:04;;;;;;;16.17;10.80;;;7.20;99.90;;;;;;5030181;28;20033;-63
2022/11/12 09:18:30;;;;;;;16.63;10.57;;;7.30;99.90;;;;;;5030607;28;20102;-63
2022/11/12 09:21:00;;;;;;;16.48;10.30;;;7.40;99.90;;;;;;5015070;28;20033;-63
2022/11/12 09:23:26;;;;;;;17.63;11.50;;;7.50;99.90;;;;;;5024748;22;20037;-68
2022/11/12 09:25:54;;;;;;;17.30;11.00;;;7.60;99.90;;;;;;5046455;28;20030;-68
2022/11/12 09:28:19;;;;;;;17.55;10.75;;;7.60;99.90;;;;;;5035892;28;20033;-68
2022/11/12 09:30:48;;;;;;;18.00;11.27;;;7.70;99.90;;;;;;5052184;28;20090;-68
2022/11/12 09:33:15;;;;;;;17.40;11.75;;;7.70;99.90;;;;;;5042689;28;20041;-68
2022/11/12 09:35:40;;;;;;;18.80;12.38;;;7.80;99.90;;;;;;5048087;28;20037;-68
2022/11/12 09:38:06;;;;;;;22.30;11.15;;;7.90;99.90;;;;;;5042629;28;20086;-70
2022/11/12 09:40:44;;;;;;;18.48;11.70;;;8.00;99.90;;;;;;5042757;28;20037;-68
2022/11/12 09:43:17;;;;;;;20.75;11.77;;;8.00;99.90;;;;;;5036480;28;20033;-68
2022/11/12 09:45:44;;;;;;;17.83;12.18;;;8.10;99.90;;;;;;5044933;28;20075;-69
2022/11/12 09:48:13;;;;;;;16.85;12.02;;;8.30;99.90;;;;;;5044467;28;20029;-68
2022/11/12 09:50:52;;;;;;;21.23;12.48;;;8.30;99.90;;;;;;5042335;28;20111;-68
2022/11/12 09:53:26;;;;;;;19.92;11.95;;;8.40;99.90;;;;;;5042747;28;20037;-68
2022/11/12 09:55:53;;;;;;;19.33;12.40;;;8.50;99.90;;;;;;5044742;28;20036;-68
2022/11/12 09:58:18;;;;;;;20.45;11.95;;;8.60;99.90;;;;;;5029466;28;20041;-68
2022/11/12 10:00:54;;;;;;;18.85;11.80;;;8.60;99.90;;;;;;5041928;28;20380;-69
2022/11/12 10:03:44;;;;;;;17.27;11.65;;;8.70;99.90;;;;;;5043222;28;20662;-69
2022/11/12 10:06:17;;;;;;;18.77;11.55;;;8.80;99.90;;;;;;5046602;28;20402;-69
2022/11/12 10:08:49;;;;;;;15.82;11.25;;;8.80;99.90;;;;;;5032197;28;20125;-69
2022/11/12 10:11:30;;;;;;;19.05;11.93;;;8.90;99.90;;;;;;5031482;28;20041;-68
2022/11/12 10:14:20;;;;;;;18.92;12.70;;;9.00;99.90;;;;;;5031663;28;20045;-66
2022/11/12 10:17:10;;;;;;;19.92;11.73;;;9.10;99.90;;;;;;5037012;28;20040;-67
2022/11/12 10:20:06;;;;;;;19.20;12.10;;;9.20;99.90;;;;;;5043465;28;20038;-67
2022/11/12 10:22:45;;;;;;;17.75;12.05;;;9.30;99.90;;;;;;5051921;28;20311;-67
2022/11/12 10:25:17;;;;;;;18.23;12.05;;;9.40;99.90;;;;;;5051050;28;20069;-67
2022/11/12 10:27:44;;;;;;;22.02;12.35;;;9.40;99.90;;;;;;5051947;28;20041;-67
2022/11/12 10:33:48;;;;;;;19.67;12.02;;;9.60;99.90;;;;;;5048951;28;20118;-67
2022/11/12 10:36:28;;;;;;;18.70;11.45;;;9.60;99.90;;;;;;5050307;28;20111;-67
2022/11/12 10:38:54;;;;;;;19.35;11.68;;;9.70;99.90;;;;;;5051659;28;20044;-67
2022/11/12 10:41:29;;;;;;;20.13;11.52;;;9.80;99.90;;;;;;5041907;28;20037;-67
2022/11/12 10:44:11;;;;;;;18.85;12.25;;;9.80;99.90;;;;;;5042371;28;20123;-67
2022/11/12 10:46:38;;;;;;;16.42;10.75;;;9.90;99.90;;;;;;5041149;28;20033;-68
2022/11/12 10:49:20;;;;;;;17.70;11.80;;;10.00;99.90;;;;;;5044698;28;20118;-67
2022/11/12 10:51:56;;;;;;;18.85;10.77;;;10.10;99.90;;;;;;5046286;28;20036;-68
2022/11/12 10:54:36;;;;;;;19.27;11.05;;;10.20;99.90;;;;;;5042635;28;20049;-67
2022/11/12 10:57:19;;;;;;;19.35;11.15;;;10.20;99.90;;;;;;5047173;28;20082;-67
2022/11/12 10:59:45;;;;;;;19.05;11.10;;;10.30;99.90;;;;;;5048500;28;20513;-67
2022/11/12 11:02:17;;;;;;;17.63;11.68;;;10.40;99.90;;;;;;5042849;28;20046;-67
2022/11/12 11:04:43;;;;;;;18.30;11.65;;;10.40;99.90;;;;;;5042362;28;20494;-67
2022/11/12 11:07:23;;;;;;;19.67;11.55;;;10.50;99.90;;;;;;5041376;28;20029;-67
2022/11/12 11:09:53;;;;;;;15.95;10.52;;;10.60;99.90;;;;;;5045350;28;20502;-68
2022/11/12 11:12:32;;;;;;;17.27;10.40;;;10.60;99.90;;;;;;5046138;28;20037;-67
2022/11/12 11:15:07;;;;;;;17.10;10.68;;;10.70;99.90;;;;;;5047856;28;20087;-67
2022/11/12 11:17:33;;;;;;;16.45;10.68;;;10.80;99.90;;;;;;5048145;28;20056;-68
2022/11/12 11:19:59;;;;;;;20.42;10.75;;;10.80;99.90;;;;;;5054940;28;20033;-66
2022/11/12 11:22:41;;;;;;;19.02;10.73;;;10.90;99.90;;;;;;5047043;28;20037;-67
2022/11/12 11:25:26;;;;;;;17.20;11.13;;;11.00;99.90;;;;;;5043187;28;20057;-67
2022/11/12 11:28:00;;;;;;;13.55;10.25;;;11.00;99.90;;;;;;5048334;28;20082;-67
2022/11/12 11:30:26;;;;;;;15.45;11.00;;;11.00;99.90;;;;;;5055310;28;20041;-67
2022/11/12 11:33:13;;;;;;;14.75;9.85;;;11.00;99.90;;;;;;5051578;28;20094;-66
2022/11/12 11:36:00;;;;;;;15.68;10.55;;;11.10;99.90;;;;;;5045940;28;20079;-67
2022/11/12 11:38:40;;;;;;;15.35;10.88;;;11.10;99.90;;;;;;5049140;28;20083;-68
2022/11/12 11:41:39;;;;;;;15.30;10.57;;;11.20;99.90;;;;;;5052233;28;20048;-67
2022/11/12 11:44:25;;;;;;;15.35;10.18;;;11.30;99.90;;;;;;5045569;28;20037;-68
2022/11/12 11:47:28;;;;;;;18.00;10.80;;;11.40;99.90;;;;;;5043205;28;20256;-67
2022/11/12 11:50:07;;;;;;;20.00;10.98;;;11.50;99.90;;;;;;5042728;28;20040;-67
2022/11/12 11:52:41;;;;;;;18.95;11.20;;;11.60;99.90;;;;;;5037283;28;20041;-67
2022/11/12 11:55:16;;;;;;;14.27;10.48;;;11.60;99.90;;;;;;5051954;28;20503;-67
2022/11/12 11:57:47;;;;;;;16.77;10.77;;;11.70;99.90;;;;;;5040228;28;20056;-68
2022/11/12 12:00:19;;;;;;;16.10;11.50;;;11.80;99.90;;;;;;5049033;28;20045;-68
2022/11/12 12:02:54;;;;;;;15.40;10.77;;;11.80;99.90;;;;;;5051054;28;20040;-67
2022/11/12 12:05:56;;;;;;;18.60;11.55;;;11.90;99.90;;;;;;5051131;28;20036;-68
2022/11/12 12:08:40;;;;;;;14.82;10.80;;;11.90;99.90;;;;;;5047840;28;20466;-67
2022/11/12 12:11:12;;;;;;;19.40;11.88;;;12.00;99.90;;;;;;5041942;28;20487;-67
2022/11/12 12:14:03;;;;;;;18.45;11.25;;;12.10;99.90;;;;;;5047036;28;20078;-67
2022/11/12 12:16:43;;;;;;;15.43;10.57;;;12.10;99.90;;;;;;5040682;28;20402;-68
2022/11/12 12:19:57;;;;;;;16.30;11.13;;;12.10;99.90;;;;;;5045906;28;20095;-68
2022/11/12 12:22:49;;;;;;;20.50;11.00;;;12.10;99.90;;;;;;5016281;28;20041;-67
2022/11/12 12:25:25;;;;;;;19.10;11.57;;;12.00;99.90;;;;;;5046472;28;20037;-67
2022/11/12 12:28:14;;;;;;;16.48;11.65;;;12.10;99.90;;;;;;5036423;28;20037;-67
2022/11/12 12:30:46;;;;;;;23.75;11.60;;;12.20;99.90;;;;;;5043272;28;20048;-68
2022/11/12 12:33:40;;;;;;;17.80;11.15;;;12.20;99.90;;;;;;5043940;28;20083;-68
2022/11/12 12:36:24;;;;;;;14.43;10.50;;;12.30;99.90;;;;;;5043133;28;20045;-68
2022/11/12 12:39:00;;;;;;;16.40;10.95;;;12.40;99.90;;;;;;5045121;28;20470;-68
2022/11/12 12:41:32;;;;;;;15.68;11.15;;;12.40;99.90;;;;;;5040066;28;20029;-68
2022/11/12 12:44:02;;;;;;;16.70;11.20;;;12.60;99.90;;;;;;5037923;28;20097;-68
2022/11/12 12:46:33;;;;;;;17.52;11.07;;;12.60;99.90;;;;;;5047808;28;20090;-68
2022/11/12 12:49:00;;;;;;;17.80;11.30;;;12.70;99.90;;;;;;5042803;28;20483;-68
2022/11/12 12:51:29;;;;;;;15.55;10.65;;;12.80;99.90;;;;;;5045728;28;20072;-68
2022/11/12 12:53:55;;;;;;;18.30;11.52;;;12.90;99.90;;;;;;5046672;28;20086;-68
2022/11/12 12:56:30;;;;;;;15.98;11.38;;;12.90;99.90;;;;;;5037133;28;20041;-68
2022/11/12 12:58:57;;;;;;;16.52;10.95;;;13.00;99.90;;;;;;5035686;28;20756;-67
2022/11/12 13:01:22;;;;;;;15.90;10.75;;;13.00;99.90;;;;;;5045384;28;20045;-68
2022/11/12 13:04:02;;;;;;;16.85;11.25;;;13.20;99.90;;;;;;5044071;28;20097;-68
2022/11/12 13:06:32;;;;;;;15.18;10.18;;;13.40;99.90;;;;;;5037899;28;20518;-67
2022/11/12 13:09:05;;;;;;;15.13;10.63;;;13.50;99.90;;;;;;5039654;28;20061;-68
2022/11/12 13:14:33;;;;;;;14.68;10.60;;;13.90;99.90;;;;;;5044993;28;20491;-68
2022/11/12 13:17:06;;;;;;;18.02;10.75;;;14.00;99.90;;;;;;5045308;28;20037;-67
2022/11/12 13:20:10;;;;;;;15.50;10.98;;;14.10;99.90;;;;;;5048840;28;20070;-68
2022/11/12 13:22:38;;;;;;;16.25;11.10;;;14.10;99.90;;;;;;5021365;28;20418;-66
2022/11/12 13:25:04;;;;;;;18.23;11.00;;;14.10;99.90;;;;;;5039677;28;20491;-67